Merrimack, New Hampshire
Current Conditions -  °F | °C
As of 3:51 AM on Friday 19 Dec 2014 (Local Time) from KASH Reporting Station
Overcast Overcast  
Wind Chill: 29°   Ceiling: 2800
Heat Index: 33°   Visibility: 10mi
Dew Point: 25°   Wind: 5mph
Humidity: 73%   Direction: 330°NNW
Pressure: 29.87"   Gusts: NA
Location:  42.86°N, 71.49°W
Report Text: KASH 190851Z AUTO 33004KT 10SM OVC028 01/M04 A2987 RMK AO2 50003 T00051038 SLP371
Loading
Personal Weather Stations






























Interactive Weather Map New forecast layout! Learn more

10-Day Weather Forecast

Advertisements
Track Severe Weather on mobile